sensor_id;sensor_type;location;lat;lon;timestamp;P1;durP1;ratioP1;P2;durP2;ratioP2
9974;SDS011;5028;50.974;4.968;2024-02-16T00:00:12;2.07;;;1.60;;
9974;SDS011;5028;50.974;4.968;2024-02-16T00:02:43;2.10;;;1.47;;
9974;SDS011;5028;50.974;4.968;2024-02-16T00:05:12;2.70;;;1.77;;
9974;SDS011;5028;50.974;4.968;2024-02-16T00:07:41;2.47;;;1.70;;
9974;SDS011;5028;50.974;4.968;2024-02-16T00:10:11;2.50;;;1.50;;
9974;SDS011;5028;50.974;4.968;2024-02-16T00:12:39;3.63;;;1.63;;
9974;SDS011;5028;50.974;4.968;2024-02-16T00:15:08;1.77;;;1.50;;
9974;SDS011;5028;50.974;4.968;2024-02-16T00:17:38;2.33;;;1.53;;
9974;SDS011;5028;50.974;4.968;2024-02-16T00:20:07;4.27;;;1.70;;
9974;SDS011;5028;50.974;4.968;2024-02-16T00:22:36;2.97;;;1.80;;
9974;SDS011;5028;50.974;4.968;2024-02-16T00:25:05;1.67;;;1.50;;
9974;SDS011;5028;50.974;4.968;2024-02-16T00:27:35;2.67;;;1.47;;
9974;SDS011;5028;50.974;4.968;2024-02-16T00:30:06;2.10;;;1.60;;
9974;SDS011;5028;50.974;4.968;2024-02-16T00:32:36;3.23;;;1.70;;
9974;SDS011;5028;50.974;4.968;2024-02-16T00:35:05;2.40;;;1.63;;
9974;SDS011;5028;50.974;4.968;2024-02-16T00:37:33;2.63;;;1.60;;
9974;SDS011;5028;50.974;4.968;2024-02-16T00:40:02;1.73;;;1.40;;
9974;SDS011;5028;50.974;4.968;2024-02-16T00:42:32;3.83;;;2.03;;
9974;SDS011;5028;50.974;4.968;2024-02-16T00:45:02;2.10;;;1.77;;
9974;SDS011;5028;50.974;4.968;2024-02-16T00:47:31;2.10;;;1.60;;
9974;SDS011;5028;50.974;4.968;2024-02-16T00:49:59;2.27;;;1.60;;
9974;SDS011;5028;50.974;4.968;2024-02-16T00:52:28;2.60;;;1.70;;
9974;SDS011;5028;50.974;4.968;2024-02-16T00:54:56;2.67;;;1.80;;
9974;SDS011;5028;50.974;4.968;2024-02-16T00:57:25;2.90;;;1.90;;
9974;SDS011;5028;50.974;4.968;2024-02-16T00:59:54;2.40;;;1.60;;
9974;SDS011;5028;50.974;4.968;2024-02-16T01:02:23;2.97;;;1.63;;
9974;SDS011;5028;50.974;4.968;2024-02-16T01:04:55;2.03;;;1.80;;
9974;SDS011;5028;50.974;4.968;2024-02-16T01:07:29;2.63;;;1.70;;
9974;SDS011;5028;50.974;4.968;2024-02-16T01:09:58;2.10;;;1.80;;
9974;SDS011;5028;50.974;4.968;2024-02-16T01:12:29;1.67;;;1.57;;
9974;SDS011;5028;50.974;4.968;2024-02-16T01:14:59;2.57;;;1.83;;
9974;SDS011;5028;50.974;4.968;2024-02-16T01:17:28;1.90;;;1.70;;
9974;SDS011;5028;50.974;4.968;2024-02-16T01:19:59;3.43;;;1.90;;
9974;SDS011;5028;50.974;4.968;2024-02-16T01:22:27;2.20;;;2.00;;
9974;SDS011;5028;50.974;4.968;2024-02-16T01:24:56;2.63;;;1.73;;
9974;SDS011;5028;50.974;4.968;2024-02-16T01:27:25;2.87;;;1.77;;
9974;SDS011;5028;50.974;4.968;2024-02-16T01:29:54;2.10;;;1.90;;
9974;SDS011;5028;50.974;4.968;2024-02-16T01:32:24;3.13;;;1.93;;
9974;SDS011;5028;50.974;4.968;2024-02-16T01:34:52;3.23;;;1.80;;
9974;SDS011;5028;50.974;4.968;2024-02-16T01:37:20;1.73;;;1.53;;
9974;SDS011;5028;50.974;4.968;2024-02-16T01:39:49;1.80;;;1.60;;
9974;SDS011;5028;50.974;4.968;2024-02-16T01:42:17;3.33;;;1.80;;
9974;SDS011;5028;50.974;4.968;2024-02-16T01:44:45;3.07;;;1.77;;
9974;SDS011;5028;50.974;4.968;2024-02-16T01:47:13;2.60;;;1.73;;
9974;SDS011;5028;50.974;4.968;2024-02-16T01:49:44;2.73;;;1.87;;
9974;SDS011;5028;50.974;4.968;2024-02-16T01:52:13;2.27;;;1.90;;
9974;SDS011;5028;50.974;4.968;2024-02-16T01:54:41;1.97;;;1.73;;
9974;SDS011;5028;50.974;4.968;2024-02-16T01:57:09;2.47;;;1.73;;
9974;SDS011;5028;50.974;4.968;2024-02-16T01:59:39;2.63;;;1.80;;
9974;SDS011;5028;50.974;4.968;2024-02-16T02:02:08;2.63;;;1.60;;
9974;SDS011;5028;50.974;4.968;2024-02-16T02:04:37;5.10;;;2.00;;
9974;SDS011;5028;50.974;4.968;2024-02-16T02:07:12;2.60;;;1.67;;
9974;SDS011;5028;50.974;4.968;2024-02-16T02:09:41;1.60;;;1.50;;
9974;SDS011;5028;50.974;4.968;2024-02-16T02:12:09;2.03;;;1.80;;
9974;SDS011;5028;50.974;4.968;2024-02-16T02:14:38;2.17;;;1.60;;
9974;SDS011;5028;50.974;4.968;2024-02-16T02:17:06;4.40;;;1.90;;
9974;SDS011;5028;50.974;4.968;2024-02-16T02:19:35;2.77;;;1.83;;
9974;SDS011;5028;50.974;4.968;2024-02-16T02:22:03;1.80;;;1.70;;
9974;SDS011;5028;50.974;4.968;2024-02-16T02:24:33;2.17;;;1.80;;
9974;SDS011;5028;50.974;4.968;2024-02-16T02:27:01;3.40;;;1.70;;
9974;SDS011;5028;50.974;4.968;2024-02-16T02:29:30;2.03;;;1.70;;
9974;SDS011;5028;50.974;4.968;2024-02-16T02:31:59;2.10;;;1.90;;
9974;SDS011;5028;50.974;4.968;2024-02-16T02:34:27;1.80;;;1.70;;
9974;SDS011;5028;50.974;4.968;2024-02-16T02:36:55;1.83;;;1.60;;
9974;SDS011;5028;50.974;4.968;2024-02-16T02:39:24;2.10;;;1.87;;
9974;SDS011;5028;50.974;4.968;2024-02-16T02:41:53;2.20;;;1.60;;
9974;SDS011;5028;50.974;4.968;2024-02-16T02:44:22;2.90;;;1.83;;
9974;SDS011;5028;50.974;4.968;2024-02-16T02:46:50;4.57;;;2.03;;
9974;SDS011;5028;50.974;4.968;2024-02-16T02:49:18;2.97;;;2.17;;
9974;SDS011;5028;50.974;4.968;2024-02-16T02:51:47;3.27;;;1.87;;
9974;SDS011;5028;50.974;4.968;2024-02-16T02:54:15;2.57;;;1.80;;
9974;SDS011;5028;50.974;4.968;2024-02-16T02:56:43;2.77;;;1.63;;
9974;SDS011;5028;50.974;4.968;2024-02-16T02:59:13;3.17;;;1.77;;
9974;SDS011;5028;50.974;4.968;2024-02-16T03:01:41;3.03;;;2.00;;
9974;SDS011;5028;50.974;4.968;2024-02-16T03:04:09;3.20;;;2.00;;
9974;SDS011;5028;50.974;4.968;2024-02-16T03:06:38;3.83;;;2.10;;
9974;SDS011;5028;50.974;4.968;2024-02-16T03:09:06;2.33;;;1.80;;
9974;SDS011;5028;50.974;4.968;2024-02-16T03:11:34;4.27;;;2.00;;
9974;SDS011;5028;50.974;4.968;2024-02-16T03:14:03;3.43;;;2.00;;
9974;SDS011;5028;50.974;4.968;2024-02-16T03:16:33;2.17;;;1.80;;
9974;SDS011;5028;50.974;4.968;2024-02-16T03:19:02;3.40;;;1.87;;
9974;SDS011;5028;50.974;4.968;2024-02-16T03:21:35;2.07;;;1.87;;
9974;SDS011;5028;50.974;4.968;2024-02-16T03:24:04;2.70;;;2.13;;
9974;SDS011;5028;50.974;4.968;2024-02-16T03:26:32;2.17;;;1.60;;
9974;SDS011;5028;50.974;4.968;2024-02-16T03:29:01;3.37;;;1.57;;
9974;SDS011;5028;50.974;4.968;2024-02-16T03:31:29;2.07;;;1.87;;
9974;SDS011;5028;50.974;4.968;2024-02-16T03:34:01;2.60;;;1.60;;
9974;SDS011;5028;50.974;4.968;2024-02-16T03:36:30;2.63;;;2.00;;
9974;SDS011;5028;50.974;4.968;2024-02-16T03:38:58;2.57;;;1.67;;
9974;SDS011;5028;50.974;4.968;2024-02-16T03:41:26;2.17;;;1.80;;
9974;SDS011;5028;50.974;4.968;2024-02-16T03:43:55;2.33;;;1.90;;
9974;SDS011;5028;50.974;4.968;2024-02-16T03:46:23;2.63;;;2.00;;
9974;SDS011;5028;50.974;4.968;2024-02-16T03:48:52;2.40;;;1.70;;
9974;SDS011;5028;50.974;4.968;2024-02-16T03:51:22;2.67;;;1.93;;
9974;SDS011;5028;50.974;4.968;2024-02-16T03:53:51;2.90;;;2.00;;
9974;SDS011;5028;50.974;4.968;2024-02-16T03:56:19;2.27;;;1.93;;
9974;SDS011;5028;50.974;4.968;2024-02-16T03:58:47;3.23;;;2.10;;
9974;SDS011;5028;50.974;4.968;2024-02-16T04:01:16;2.37;;;1.90;;
9974;SDS011;5028;50.974;4.968;2024-02-16T04:03:44;4.97;;;1.80;;
9974;SDS011;5028;50.974;4.968;2024-02-16T04:06:13;4.10;;;2.00;;
9974;SDS011;5028;50.974;4.968;2024-02-16T04:08:42;3.23;;;1.90;;
9974;SDS011;5028;50.974;4.968;2024-02-16T04:11:11;2.90;;;2.03;;
9974;SDS011;5028;50.974;4.968;2024-02-16T04:13:41;3.93;;;2.10;;
9974;SDS011;5028;50.974;4.968;2024-02-16T04:16:10;3.33;;;2.20;;
9974;SDS011;5028;50.974;4.968;2024-02-16T04:18:38;4.60;;;2.10;;
9974;SDS011;5028;50.974;4.968;2024-02-16T04:21:06;3.90;;;1.90;;
9974;SDS011;5028;50.974;4.968;2024-02-16T04:23:35;2.57;;;1.97;;
9974;SDS011;5028;50.974;4.968;2024-02-16T04:26:04;2.77;;;1.77;;
9974;SDS011;5028;50.974;4.968;2024-02-16T04:28:33;2.40;;;2.00;;
9974;SDS011;5028;50.974;4.968;2024-02-16T04:31:02;2.27;;;2.00;;
9974;SDS011;5028;50.974;4.968;2024-02-16T04:33:30;2.27;;;1.90;;
9974;SDS011;5028;50.974;4.968;2024-02-16T04:35:59;2.70;;;1.77;;
9974;SDS011;5028;50.974;4.968;2024-02-16T04:38:27;3.47;;;2.00;;
9974;SDS011;5028;50.974;4.968;2024-02-16T04:40:55;3.00;;;2.07;;
9974;SDS011;5028;50.974;4.968;2024-02-16T04:43:25;4.40;;;1.70;;
9974;SDS011;5028;50.974;4.968;2024-02-16T04:45:53;4.83;;;2.30;;
9974;SDS011;5028;50.974;4.968;2024-02-16T04:48:21;3.93;;;1.90;;
9974;SDS011;5028;50.974;4.968;2024-02-16T04:50:50;3.37;;;2.00;;
9974;SDS011;5028;50.974;4.968;2024-02-16T04:53:18;3.70;;;2.20;;
9974;SDS011;5028;50.974;4.968;2024-02-16T04:55:47;2.40;;;2.00;;
9974;SDS011;5028;50.974;4.968;2024-02-16T04:58:16;2.27;;;1.80;;
9974;SDS011;5028;50.974;4.968;2024-02-16T05:00:45;3.37;;;2.10;;
9974;SDS011;5028;50.974;4.968;2024-02-16T05:03:14;3.87;;;2.37;;
9974;SDS011;5028;50.974;4.968;2024-02-16T05:05:43;3.23;;;2.00;;
9974;SDS011;5028;50.974;4.968;2024-02-16T05:08:12;3.90;;;2.00;;
9974;SDS011;5028;50.974;4.968;2024-02-16T05:10:40;3.53;;;2.10;;
9974;SDS011;5028;50.974;4.968;2024-02-16T05:13:08;2.83;;;2.00;;
9974;SDS011;5028;50.974;4.968;2024-02-16T05:15:38;2.13;;;1.80;;
9974;SDS011;5028;50.974;4.968;2024-02-16T05:18:07;2.87;;;2.03;;
9974;SDS011;5028;50.974;4.968;2024-02-16T05:20:39;4.23;;;1.87;;
9974;SDS011;5028;50.974;4.968;2024-02-16T05:23:07;3.57;;;2.10;;
9974;SDS011;5028;50.974;4.968;2024-02-16T05:25:36;2.87;;;2.07;;
9974;SDS011;5028;50.974;4.968;2024-02-16T05:28:05;5.03;;;2.30;;
9974;SDS011;5028;50.974;4.968;2024-02-16T05:30:33;2.10;;;1.90;;
9974;SDS011;5028;50.974;4.968;2024-02-16T05:33:02;4.00;;;2.33;;
9974;SDS011;5028;50.974;4.968;2024-02-16T05:35:32;4.57;;;2.23;;
9974;SDS011;5028;50.974;4.968;2024-02-16T05:38:00;3.97;;;2.50;;
9974;SDS011;5028;50.974;4.968;2024-02-16T05:40:33;4.70;;;2.50;;
9974;SDS011;5028;50.974;4.968;2024-02-16T05:43:11;3.20;;;2.20;;
9974;SDS011;5028;50.974;4.968;2024-02-16T05:45:40;3.63;;;2.20;;
9974;SDS011;5028;50.974;4.968;2024-02-16T05:48:08;3.30;;;2.20;;
9974;SDS011;5028;50.974;4.968;2024-02-16T05:50:38;3.67;;;2.00;;
9974;SDS011;5028;50.974;4.968;2024-02-16T05:53:07;2.40;;;1.93;;
9974;SDS011;5028;50.974;4.968;2024-02-16T05:55:36;3.03;;;2.17;;
9974;SDS011;5028;50.974;4.968;2024-02-16T05:58:05;4.40;;;2.13;;
9974;SDS011;5028;50.974;4.968;2024-02-16T06:00:33;5.43;;;2.17;;
9974;SDS011;5028;50.974;4.968;2024-02-16T06:03:02;4.70;;;2.37;;
9974;SDS011;5028;50.974;4.968;2024-02-16T06:05:30;3.70;;;2.30;;
9974;SDS011;5028;50.974;4.968;2024-02-16T06:08:01;3.83;;;2.20;;
9974;SDS011;5028;50.974;4.968;2024-02-16T06:10:29;4.17;;;2.03;;
9974;SDS011;5028;50.974;4.968;2024-02-16T06:12:58;3.13;;;2.20;;
9974;SDS011;5028;50.974;4.968;2024-02-16T06:15:26;3.30;;;2.27;;
9974;SDS011;5028;50.974;4.968;2024-02-16T06:17:55;3.80;;;2.60;;
9974;SDS011;5028;50.974;4.968;2024-02-16T06:20:23;4.23;;;2.17;;
9974;SDS011;5028;50.974;4.968;2024-02-16T06:22:52;5.63;;;2.40;;
9974;SDS011;5028;50.974;4.968;2024-02-16T06:25:21;3.43;;;2.20;;
9974;SDS011;5028;50.974;4.968;2024-02-16T06:27:50;3.33;;;2.17;;
9974;SDS011;5028;50.974;4.968;2024-02-16T06:30:18;3.47;;;2.17;;
9974;SDS011;5028;50.974;4.968;2024-02-16T06:32:46;3.80;;;2.70;;
9974;SDS011;5028;50.974;4.968;2024-02-16T06:35:15;3.63;;;2.47;;
9974;SDS011;5028;50.974;4.968;2024-02-16T06:37:43;4.97;;;2.53;;
9974;SDS011;5028;50.974;4.968;2024-02-16T06:40:12;2.20;;;2.00;;
9974;SDS011;5028;50.974;4.968;2024-02-16T06:42:42;5.37;;;2.43;;
9974;SDS011;5028;50.974;4.968;2024-02-16T06:45:10;4.63;;;2.50;;
9974;SDS011;5028;50.974;4.968;2024-02-16T06:47:38;4.73;;;2.73;;
9974;SDS011;5028;50.974;4.968;2024-02-16T06:50:07;4.40;;;2.37;;
9974;SDS011;5028;50.974;4.968;2024-02-16T06:52:36;4.93;;;2.57;;
9974;SDS011;5028;50.974;4.968;2024-02-16T06:55:04;3.53;;;2.47;;
9974;SDS011;5028;50.974;4.968;2024-02-16T06:57:34;5.27;;;2.60;;
9974;SDS011;5028;50.974;4.968;2024-02-16T07:00:04;3.97;;;2.60;;
9974;SDS011;5028;50.974;4.968;2024-02-16T07:02:35;4.03;;;2.43;;
9974;SDS011;5028;50.974;4.968;2024-02-16T07:05:03;3.37;;;2.27;;
9974;SDS011;5028;50.974;4.968;2024-02-16T07:07:32;3.57;;;2.30;;
9974;SDS011;5028;50.974;4.968;2024-02-16T07:10:02;5.47;;;2.30;;
9974;SDS011;5028;50.974;4.968;2024-02-16T07:12:31;4.27;;;2.43;;
9974;SDS011;5028;50.974;4.968;2024-02-16T07:15:00;4.87;;;2.37;;
9974;SDS011;5028;50.974;4.968;2024-02-16T07:17:30;3.43;;;2.30;;
9974;SDS011;5028;50.974;4.968;2024-02-16T07:20:01;6.03;;;2.13;;
9974;SDS011;5028;50.974;4.968;2024-02-16T07:22:30;4.27;;;2.20;;
9974;SDS011;5028;50.974;4.968;2024-02-16T07:24:58;3.53;;;2.27;;
9974;SDS011;5028;50.974;4.968;2024-02-16T07:27:27;4.53;;;2.37;;
9974;SDS011;5028;50.974;4.968;2024-02-16T07:29:55;3.23;;;2.33;;
9974;SDS011;5028;50.974;4.968;2024-02-16T07:32:24;5.97;;;2.90;;
9974;SDS011;5028;50.974;4.968;2024-02-16T07:34:53;3.03;;;2.40;;
9974;SDS011;5028;50.974;4.968;2024-02-16T07:37:22;3.43;;;2.27;;
9974;SDS011;5028;50.974;4.968;2024-02-16T07:39:50;3.30;;;2.30;;
9974;SDS011;5028;50.974;4.968;2024-02-16T07:42:18;5.07;;;2.47;;
9974;SDS011;5028;50.974;4.968;2024-02-16T07:44:47;3.83;;;2.53;;
9974;SDS011;5028;50.974;4.968;2024-02-16T07:47:15;3.37;;;2.60;;
9974;SDS011;5028;50.974;4.968;2024-02-16T07:49:43;4.57;;;2.70;;
9974;SDS011;5028;50.974;4.968;2024-02-16T07:52:14;4.87;;;2.40;;
9974;SDS011;5028;50.974;4.968;2024-02-16T07:54:42;4.53;;;2.50;;
9974;SDS011;5028;50.974;4.968;2024-02-16T07:57:11;4.37;;;2.23;;
9974;SDS011;5028;50.974;4.968;2024-02-16T07:59:39;4.90;;;2.20;;
9974;SDS011;5028;50.974;4.968;2024-02-16T08:02:07;4.13;;;2.37;;
9974;SDS011;5028;50.974;4.968;2024-02-16T08:04:35;2.70;;;2.27;;
9974;SDS011;5028;50.974;4.968;2024-02-16T08:07:07;4.30;;;2.10;;
9974;SDS011;5028;50.974;4.968;2024-02-16T08:09:37;3.90;;;2.20;;
9974;SDS011;5028;50.974;4.968;2024-02-16T08:12:06;2.87;;;2.13;;
9974;SDS011;5028;50.974;4.968;2024-02-16T08:14:35;6.37;;;2.50;;
9974;SDS011;5028;50.974;4.968;2024-02-16T08:17:03;5.43;;;2.30;;
9974;SDS011;5028;50.974;4.968;2024-02-16T08:19:44;3.93;;;2.50;;
9974;SDS011;5028;50.974;4.968;2024-02-16T08:22:20;5.10;;;2.20;;
9974;SDS011;5028;50.974;4.968;2024-02-16T08:24:50;6.03;;;2.77;;
9974;SDS011;5028;50.974;4.968;2024-02-16T08:27:19;5.80;;;2.60;;
9974;SDS011;5028;50.974;4.968;2024-02-16T08:29:48;4.03;;;2.60;;
9974;SDS011;5028;50.974;4.968;2024-02-16T08:32:17;3.90;;;2.60;;
9974;SDS011;5028;50.974;4.968;2024-02-16T08:34:46;6.40;;;2.67;;
9974;SDS011;5028;50.974;4.968;2024-02-16T08:37:16;6.13;;;2.50;;
9974;SDS011;5028;50.974;4.968;2024-02-16T08:39:45;4.77;;;2.80;;
9974;SDS011;5028;50.974;4.968;2024-02-16T08:42:15;4.60;;;2.80;;
9974;SDS011;5028;50.974;4.968;2024-02-16T08:44:43;5.03;;;3.00;;
9974;SDS011;5028;50.974;4.968;2024-02-16T08:47:12;7.07;;;3.17;;
9974;SDS011;5028;50.974;4.968;2024-02-16T08:49:40;5.23;;;2.77;;
9974;SDS011;5028;50.974;4.968;2024-02-16T08:52:09;7.10;;;2.97;;
9974;SDS011;5028;50.974;4.968;2024-02-16T08:54:37;3.60;;;2.90;;
9974;SDS011;5028;50.974;4.968;2024-02-16T08:57:06;5.03;;;3.03;;
9974;SDS011;5028;50.974;4.968;2024-02-16T08:59:35;5.60;;;3.20;;
9974;SDS011;5028;50.974;4.968;2024-02-16T09:02:04;4.03;;;3.00;;
9974;SDS011;5028;50.974;4.968;2024-02-16T09:04:32;4.60;;;3.00;;
9974;SDS011;5028;50.974;4.968;2024-02-16T09:07:00;4.37;;;2.60;;
9974;SDS011;5028;50.974;4.968;2024-02-16T09:09:29;5.33;;;3.20;;
9974;SDS011;5028;50.974;4.968;2024-02-16T09:11:58;4.13;;;2.97;;
9974;SDS011;5028;50.974;4.968;2024-02-16T09:14:26;4.07;;;2.93;;
9974;SDS011;5028;50.974;4.968;2024-02-16T09:16:56;4.43;;;2.67;;
9974;SDS011;5028;50.974;4.968;2024-02-16T09:19:24;4.10;;;2.80;;
9974;SDS011;5028;50.974;4.968;2024-02-16T09:21:52;5.43;;;2.70;;
9974;SDS011;5028;50.974;4.968;2024-02-16T09:24:24;6.67;;;2.90;;
9974;SDS011;5028;50.974;4.968;2024-02-16T09:26:56;4.47;;;2.83;;
9974;SDS011;5028;50.974;4.968;2024-02-16T09:29:27;5.33;;;2.80;;
9974;SDS011;5028;50.974;4.968;2024-02-16T09:31:57;5.17;;;2.90;;
9974;SDS011;5028;50.974;4.968;2024-02-16T09:34:26;5.30;;;3.10;;
9974;SDS011;5028;50.974;4.968;2024-02-16T09:36:55;5.57;;;2.83;;
9974;SDS011;5028;50.974;4.968;2024-02-16T09:39:23;6.57;;;3.33;;
9974;SDS011;5028;50.974;4.968;2024-02-16T09:41:54;4.70;;;2.97;;
9974;SDS011;5028;50.974;4.968;2024-02-16T09:44:23;4.90;;;3.23;;
9974;SDS011;5028;50.974;4.968;2024-02-16T09:46:53;7.37;;;3.00;;
9974;SDS011;5028;50.974;4.968;2024-02-16T09:49:23;4.90;;;3.10;;
9974;SDS011;5028;50.974;4.968;2024-02-16T09:52:04;5.50;;;3.37;;
9974;SDS011;5028;50.974;4.968;2024-02-16T09:54:37;7.50;;;3.00;;
9974;SDS011;5028;50.974;4.968;2024-02-16T09:57:06;5.33;;;2.90;;
9974;SDS011;5028;50.974;4.968;2024-02-16T09:59:34;4.60;;;3.20;;
9974;SDS011;5028;50.974;4.968;2024-02-16T10:02:04;6.43;;;3.07;;
9974;SDS011;5028;50.974;4.968;2024-02-16T10:04:35;7.47;;;3.50;;
9974;SDS011;5028;50.974;4.968;2024-02-16T10:07:03;6.53;;;3.53;;
9974;SDS011;5028;50.974;4.968;2024-02-16T10:09:38;5.40;;;3.20;;
9974;SDS011;5028;50.974;4.968;2024-02-16T10:12:09;6.80;;;3.43;;
9974;SDS011;5028;50.974;4.968;2024-02-16T10:14:38;5.63;;;3.37;;
9974;SDS011;5028;50.974;4.968;2024-02-16T10:17:08;5.40;;;3.37;;
9974;SDS011;5028;50.974;4.968;2024-02-16T10:19:38;6.97;;;3.70;;
9974;SDS011;5028;50.974;4.968;2024-02-16T10:22:09;7.83;;;3.87;;
9974;SDS011;5028;50.974;4.968;2024-02-16T10:24:39;5.53;;;3.53;;
9974;SDS011;5028;50.974;4.968;2024-02-16T10:27:13;9.47;;;3.90;;
9974;SDS011;5028;50.974;4.968;2024-02-16T10:29:44;7.00;;;3.63;;
9974;SDS011;5028;50.974;4.968;2024-02-16T10:32:16;7.00;;;3.50;;
9974;SDS011;5028;50.974;4.968;2024-02-16T10:34:47;8.43;;;3.70;;
9974;SDS011;5028;50.974;4.968;2024-02-16T10:37:17;7.70;;;3.60;;
9974;SDS011;5028;50.974;4.968;2024-02-16T10:39:45;6.03;;;4.00;;
9974;SDS011;5028;50.974;4.968;2024-02-16T10:42:15;8.80;;;4.57;;
9974;SDS011;5028;50.974;4.968;2024-02-16T10:44:47;7.53;;;4.60;;
9974;SDS011;5028;50.974;4.968;2024-02-16T10:47:15;7.73;;;4.50;;
9974;SDS011;5028;50.974;4.968;2024-02-16T10:49:44;7.67;;;4.30;;
9974;SDS011;5028;50.974;4.968;2024-02-16T10:52:14;10.93;;;4.40;;
9974;SDS011;5028;50.974;4.968;2024-02-16T10:54:44;9.97;;;5.00;;
9974;SDS011;5028;50.974;4.968;2024-02-16T10:57:13;9.67;;;5.00;;
9974;SDS011;5028;50.974;4.968;2024-02-16T10:59:44;6.23;;;4.50;;
9974;SDS011;5028;50.974;4.968;2024-02-16T11:02:14;9.97;;;4.53;;
9974;SDS011;5028;50.974;4.968;2024-02-16T11:04:45;8.37;;;4.93;;
9974;SDS011;5028;50.974;4.968;2024-02-16T11:07:17;11.47;;;4.80;;
9974;SDS011;5028;50.974;4.968;2024-02-16T11:09:46;12.30;;;5.20;;
9974;SDS011;5028;50.974;4.968;2024-02-16T11:12:15;10.33;;;5.40;;
9974;SDS011;5028;50.974;4.968;2024-02-16T11:14:44;12.40;;;5.30;;
9974;SDS011;5028;50.974;4.968;2024-02-16T11:17:13;9.00;;;4.50;;
9974;SDS011;5028;50.974;4.968;2024-02-16T11:19:43;7.87;;;4.90;;
9974;SDS011;5028;50.974;4.968;2024-02-16T11:22:14;9.37;;;4.90;;
9974;SDS011;5028;50.974;4.968;2024-02-16T11:24:46;10.07;;;4.90;;
9974;SDS011;5028;50.974;4.968;2024-02-16T11:27:17;10.57;;;5.10;;
9974;SDS011;5028;50.974;4.968;2024-02-16T11:29:48;8.97;;;5.20;;
9974;SDS011;5028;50.974;4.968;2024-02-16T11:32:18;9.27;;;5.37;;
9974;SDS011;5028;50.974;4.968;2024-02-16T11:34:47;7.47;;;4.97;;
9974;SDS011;5028;50.974;4.968;2024-02-16T11:37:17;9.00;;;4.87;;
9974;SDS011;5028;50.974;4.968;2024-02-16T11:39:45;10.00;;;5.03;;
9974;SDS011;5028;50.974;4.968;2024-02-16T11:42:18;9.83;;;4.80;;
9974;SDS011;5028;50.974;4.968;2024-02-16T11:44:50;10.73;;;5.40;;
9974;SDS011;5028;50.974;4.968;2024-02-16T11:47:22;8.43;;;5.17;;
9974;SDS011;5028;50.974;4.968;2024-02-16T11:50:02;8.57;;;4.73;;
9974;SDS011;5028;50.974;4.968;2024-02-16T11:52:32;10.37;;;4.77;;
9974;SDS011;5028;50.974;4.968;2024-02-16T11:55:02;10.10;;;5.30;;
9974;SDS011;5028;50.974;4.968;2024-02-16T11:57:31;7.33;;;4.70;;
9974;SDS011;5028;50.974;4.968;2024-02-16T12:00:00;8.93;;;4.30;;
9974;SDS011;5028;50.974;4.968;2024-02-16T12:02:34;9.77;;;5.27;;
9974;SDS011;5028;50.974;4.968;2024-02-16T12:05:03;8.17;;;4.87;;
9974;SDS011;5028;50.974;4.968;2024-02-16T12:07:34;7.37;;;5.10;;
9974;SDS011;5028;50.974;4.968;2024-02-16T12:10:07;8.37;;;4.80;;
9974;SDS011;5028;50.974;4.968;2024-02-16T12:12:37;7.70;;;4.63;;
9974;SDS011;5028;50.974;4.968;2024-02-16T12:15:06;8.40;;;5.10;;
9974;SDS011;5028;50.974;4.968;2024-02-16T12:17:35;7.43;;;5.23;;
9974;SDS011;5028;50.974;4.968;2024-02-16T12:20:10;9.90;;;5.33;;
9974;SDS011;5028;50.974;4.968;2024-02-16T12:22:42;8.97;;;5.63;;
9974;SDS011;5028;50.974;4.968;2024-02-16T12:25:10;9.10;;;5.73;;
9974;SDS011;5028;50.974;4.968;2024-02-16T12:27:38;9.20;;;6.07;;
9974;SDS011;5028;50.974;4.968;2024-02-16T12:30:07;9.63;;;5.67;;
9974;SDS011;5028;50.974;4.968;2024-02-16T12:32:37;8.73;;;5.80;;
9974;SDS011;5028;50.974;4.968;2024-02-16T12:35:06;10.07;;;6.00;;
9974;SDS011;5028;50.974;4.968;2024-02-16T12:37:35;10.57;;;5.87;;
9974;SDS011;5028;50.974;4.968;2024-02-16T12:40:06;7.70;;;5.53;;
9974;SDS011;5028;50.974;4.968;2024-02-16T12:42:35;8.10;;;5.73;;
9974;SDS011;5028;50.974;4.968;2024-02-16T12:45:04;5.97;;;5.37;;
9974;SDS011;5028;50.974;4.968;2024-02-16T12:47:33;8.27;;;5.40;;
9974;SDS011;5028;50.974;4.968;2024-02-16T12:50:01;7.97;;;5.67;;
9974;SDS011;5028;50.974;4.968;2024-02-16T12:52:30;9.00;;;5.40;;
9974;SDS011;5028;50.974;4.968;2024-02-16T12:55:07;6.20;;;5.40;;
9974;SDS011;5028;50.974;4.968;2024-02-16T12:57:37;5.33;;;4.80;;
9974;SDS011;5028;50.974;4.968;2024-02-16T13:00:06;6.80;;;4.80;;
9974;SDS011;5028;50.974;4.968;2024-02-16T13:02:35;5.97;;;4.57;;
9974;SDS011;5028;50.974;4.968;2024-02-16T13:05:03;6.87;;;5.23;;
9974;SDS011;5028;50.974;4.968;2024-02-16T13:07:32;7.30;;;5.00;;
9974;SDS011;5028;50.974;4.968;2024-02-16T13:10:01;4.90;;;4.40;;
9974;SDS011;5028;50.974;4.968;2024-02-16T13:12:31;4.27;;;3.93;;
9974;SDS011;5028;50.974;4.968;2024-02-16T13:14:59;3.87;;;3.47;;
9974;SDS011;5028;50.974;4.968;2024-02-16T13:17:44;4.10;;;3.70;;
9974;SDS011;5028;50.974;4.968;2024-02-16T13:20:12;4.87;;;4.43;;
9974;SDS011;5028;50.974;4.968;2024-02-16T13:22:41;5.70;;;4.77;;
9974;SDS011;5028;50.974;4.968;2024-02-16T13:25:10;5.60;;;5.00;;
9974;SDS011;5028;50.974;4.968;2024-02-16T13:27:39;8.50;;;7.70;;
9974;SDS011;5028;50.974;4.968;2024-02-16T13:30:08;5.23;;;4.73;;
9974;SDS011;5028;50.974;4.968;2024-02-16T13:32:37;5.03;;;4.60;;
9974;SDS011;5028;50.974;4.968;2024-02-16T13:35:07;5.53;;;5.03;;
9974;SDS011;5028;50.974;4.968;2024-02-16T13:37:35;5.73;;;5.23;;
9974;SDS011;5028;50.974;4.968;2024-02-16T13:40:04;6.43;;;5.87;;
9974;SDS011;5028;50.974;4.968;2024-02-16T13:42:36;6.60;;;6.00;;
9974;SDS011;5028;50.974;4.968;2024-02-16T13:45:07;5.63;;;5.20;;
9974;SDS011;5028;50.974;4.968;2024-02-16T13:47:37;6.93;;;6.33;;
9974;SDS011;5028;50.974;4.968;2024-02-16T13:50:06;6.50;;;5.90;;
9974;SDS011;5028;50.974;4.968;2024-02-16T13:52:35;6.83;;;6.20;;
9974;SDS011;5028;50.974;4.968;2024-02-16T13:55:04;6.07;;;5.57;;
9974;SDS011;5028;50.974;4.968;2024-02-16T13:57:33;7.73;;;7.03;;
9974;SDS011;5028;50.974;4.968;2024-02-16T14:00:02;7.17;;;6.53;;
9974;SDS011;5028;50.974;4.968;2024-02-16T14:02:33;7.87;;;7.17;;
9974;SDS011;5028;50.974;4.968;2024-02-16T14:05:01;7.60;;;7.00;;
9974;SDS011;5028;50.974;4.968;2024-02-16T14:07:30;8.23;;;7.53;;
9974;SDS011;5028;50.974;4.968;2024-02-16T14:10:08;8.27;;;7.47;;
9974;SDS011;5028;50.974;4.968;2024-02-16T14:12:37;7.73;;;7.13;;
9974;SDS011;5028;50.974;4.968;2024-02-16T14:15:06;7.43;;;6.73;;
9974;SDS011;5028;50.974;4.968;2024-02-16T14:17:43;8.73;;;7.93;;
9974;SDS011;5028;50.974;4.968;2024-02-16T14:20:12;8.63;;;7.30;;
9974;SDS011;5028;50.974;4.968;2024-02-16T14:22:40;9.17;;;8.37;;
9974;SDS011;5028;50.974;4.968;2024-02-16T14:25:10;8.20;;;7.50;;
9974;SDS011;5028;50.974;4.968;2024-02-16T14:27:40;8.90;;;8.17;;
9974;SDS011;5028;50.974;4.968;2024-02-16T14:30:09;7.63;;;7.03;;
9974;SDS011;5028;50.974;4.968;2024-02-16T14:32:39;8.40;;;7.80;;
9974;SDS011;5028;50.974;4.968;2024-02-16T14:35:09;8.13;;;7.43;;
9974;SDS011;5028;50.974;4.968;2024-02-16T14:37:38;8.50;;;7.80;;
9974;SDS011;5028;50.974;4.968;2024-02-16T14:40:06;8.10;;;7.50;;
9974;SDS011;5028;50.974;4.968;2024-02-16T14:42:38;9.00;;;8.23;;
9974;SDS011;5028;50.974;4.968;2024-02-16T14:45:07;9.10;;;8.30;;
9974;SDS011;5028;50.974;4.968;2024-02-16T14:47:36;8.50;;;7.90;;
9974;SDS011;5028;50.974;4.968;2024-02-16T14:50:05;9.50;;;8.70;;
9974;SDS011;5028;50.974;4.968;2024-02-16T14:52:36;9.40;;;8.70;;
9974;SDS011;5028;50.974;4.968;2024-02-16T14:55:05;8.47;;;7.77;;
9974;SDS011;5028;50.974;4.968;2024-02-16T14:57:36;8.50;;;7.80;;
9974;SDS011;5028;50.974;4.968;2024-02-16T15:00:07;8.70;;;8.00;;
9974;SDS011;5028;50.974;4.968;2024-02-16T15:02:37;11.27;;;10.33;;
9974;SDS011;5028;50.974;4.968;2024-02-16T15:05:08;10.07;;;9.17;;
9974;SDS011;5028;50.974;4.968;2024-02-16T15:07:38;8.53;;;7.83;;
9974;SDS011;5028;50.974;4.968;2024-02-16T15:10:06;8.50;;;7.80;;
9974;SDS011;5028;50.974;4.968;2024-02-16T15:12:37;7.00;;;6.50;;
9974;SDS011;5028;50.974;4.968;2024-02-16T15:15:06;6.83;;;6.33;;
9974;SDS011;5028;50.974;4.968;2024-02-16T15:17:35;4.67;;;4.27;;
9974;SDS011;5028;50.974;4.968;2024-02-16T15:20:04;4.80;;;4.40;;
9974;SDS011;5028;50.974;4.968;2024-02-16T15:22:34;4.80;;;4.47;;
9974;SDS011;5028;50.974;4.968;2024-02-16T15:25:15;5.50;;;5.10;;
9974;SDS011;5028;50.974;4.968;2024-02-16T15:27:43;5.33;;;4.93;;